createdAt,value
2023-04-05T00:01:31.810Z,100254.63
2023-04-05T00:04:02.875Z,100246.77
2023-04-05T00:06:31.941Z,100241.84
2023-04-05T00:09:04.007Z,100237.41
2023-04-05T00:11:33.232Z,100234.73
2023-04-05T00:14:02.091Z,100233.34
2023-04-05T00:16:34.934Z,100228.05
2023-04-05T00:19:03.889Z,100222.37
2023-04-05T00:21:42.083Z,100219.17
2023-04-05T00:24:15.748Z,100216.14
2023-04-05T00:26:44.535Z,100212.72
2023-04-05T00:29:13.163Z,100216.80
2023-04-05T00:31:41.904Z,100216.46
2023-04-05T00:34:13.081Z,100219.32
2023-04-05T00:36:46.574Z,100219.98
2023-04-05T00:39:21.014Z,100217.08
2023-04-05T00:42:14.750Z,100216.30
2023-04-05T00:44:44.168Z,100215.33
2023-04-05T00:47:16.254Z,100215.77
2023-04-05T00:49:44.939Z,100215.77
2023-04-05T00:52:17.941Z,100211.44
2023-04-05T00:54:53.682Z,100212.10
2023-04-05T00:57:26.975Z,100214.11
2023-04-05T00:59:59.550Z,100212.61
2023-04-05T01:02:34.104Z,100216.42
2023-04-05T01:05:08.680Z,100218.22
2023-04-05T01:08:16.499Z,100210.30
2023-04-05T01:10:48.988Z,100213.83
2023-04-05T01:13:18.028Z,100210.78
2023-04-05T01:15:47.114Z,100203.92
2023-04-05T01:18:15.937Z,100199.20
2023-04-05T01:20:56.744Z,100197.40
2023-04-05T01:24:01.274Z,100201.27
2023-04-05T01:26:55.760Z,100199.60
2023-04-05T01:29:30.618Z,100193.84
2023-04-05T01:32:21.492Z,100195.26
2023-04-05T01:35:35.121Z,100193.59
2023-04-05T01:38:05.611Z,100186.52
2023-04-05T01:40:37.292Z,100185.05
2023-04-05T01:43:17.234Z,100180.95
2023-04-05T01:45:46.441Z,100182.70
2023-04-05T01:48:15.381Z,100181.91
2023-04-05T01:51:20.476Z,100179.80
2023-04-05T01:53:54.332Z,100180.93
2023-04-05T01:56:34.855Z,100178.68
2023-04-05T01:59:08.111Z,100175.93
2023-04-05T02:01:37.344Z,100170.11
2023-04-05T02:04:09.801Z,100167.23
2023-04-05T02:06:42.412Z,100167.23
2023-04-05T02:09:12.077Z,100160.67
2023-04-05T02:11:42.022Z,100159.86
2023-04-05T02:14:13.816Z,100157.41
2023-04-05T02:16:43.474Z,100156.25
2023-04-05T02:19:53.406Z,100150.55
2023-04-05T02:22:25.442Z,100148.27
2023-04-05T02:24:54.006Z,100139.83
2023-04-05T02:27:22.336Z,100139.03
2023-04-05T02:29:53.250Z,100142.54
2023-04-05T02:32:26.533Z,100143.71
2023-04-05T02:34:59.989Z,100149.11
2023-04-05T02:37:28.981Z,100147.27
2023-04-05T02:40:13.244Z,100144.64
2023-04-05T02:42:43.055Z,100140.50
2023-04-05T02:45:12.732Z,100127.77
2023-04-05T02:47:43.464Z,100124.14
2023-04-05T02:50:12.218Z,100122.55
2023-04-05T02:52:49.064Z,100128.45
2023-04-05T02:55:34.703Z,100124.81
2023-04-05T02:58:21.079Z,100118.44
2023-04-05T03:00:55.244Z,100116.11
2023-04-05T03:03:31.107Z,100113.95
2023-04-05T03:06:10.481Z,100115.61
2023-04-05T03:09:15.094Z,100112.93
2023-04-05T03:11:48.712Z,100112.63
2023-04-05T03:14:18.714Z,100111.48
2023-04-05T03:16:50.904Z,100109.55
2023-04-05T03:19:36.223Z,100108.25
2023-04-05T03:22:17.446Z,100110.90
2023-04-05T03:24:49.378Z,100113.60
2023-04-05T03:27:22.160Z,100105.46
2023-04-05T03:30:50.166Z,100105.30
2023-04-05T03:33:21.637Z,100099.22
2023-04-05T03:35:53.113Z,100098.16
2023-04-05T03:38:52.296Z,100102.08
2023-04-05T03:41:26.230Z,100078.22
2023-04-05T03:43:54.722Z,100084.02
2023-04-05T03:46:27.360Z,100082.59
2023-04-05T03:48:57.431Z,100069.79
2023-04-05T03:51:25.982Z,100069.11
2023-04-05T03:53:57.649Z,100071.43
2023-04-05T03:56:28.302Z,100060.80
2023-04-05T03:59:03.876Z,100064.23
2023-04-05T04:01:36.221Z,100069.60
2023-04-05T04:04:06.143Z,100054.16
2023-04-05T04:06:34.843Z,100056.83
2023-04-05T04:09:06.099Z,100053.02
2023-04-05T04:11:34.675Z,100046.66
2023-04-05T04:14:06.772Z,100047.43
2023-04-05T04:16:40.656Z,100044.59
2023-04-05T04:19:48.137Z,100039.62
2023-04-05T04:22:39.053Z,100030.50
2023-04-05T04:25:22.464Z,100026.76
2023-04-05T04:28:09.865Z,100023.08
2023-04-05T04:31:13.943Z,100019.48
2023-04-05T04:34:15.126Z,100019.69
2023-04-05T04:37:04.589Z,100018.27
2023-04-05T04:40:09.184Z,100012.64
2023-04-05T04:42:47.020Z,100000.86
2023-04-05T04:45:38.255Z,99994.08
2023-04-05T04:48:19.844Z,99995.80
2023-04-05T04:50:59.319Z,99992.42
2023-04-05T04:53:30.579Z,99980.89
2023-04-05T04:55:59.456Z,99976.59
2023-04-05T04:58:29.272Z,99972.67
2023-04-05T05:01:10.303Z,99978.84
2023-04-05T05:03:41.514Z,99989.70
2023-04-05T05:06:10.155Z,99971.42
2023-04-05T05:08:38.688Z,99975.17
2023-04-05T05:11:08.040Z,99980.95
2023-04-05T05:13:37.319Z,99970.95
2023-04-05T05:16:07.294Z,99977.58
2023-04-05T05:18:40.593Z,99971.84
2023-04-05T05:21:10.790Z,99975.91
2023-04-05T05:23:39.240Z,99976.48
2023-04-05T05:26:09.380Z,99981.50
2023-04-05T05:28:38.849Z,99992.19
2023-04-05T05:31:07.533Z,99993.38
2023-04-05T05:33:38.718Z,99991.05
2023-04-05T05:36:07.605Z,100000.16
2023-04-05T05:38:36.973Z,100000.48
2023-04-05T05:41:05.763Z,100012.15
2023-04-05T05:43:34.526Z,100014.34
2023-04-05T05:46:03.269Z,100011.24
2023-04-05T05:48:33.669Z,100016.05
2023-04-05T05:51:02.765Z,100014.45
2023-04-05T05:53:31.882Z,100009.48
2023-04-05T05:56:00.632Z,100003.51
2023-04-05T05:58:29.612Z,100000.79
2023-04-05T06:00:59.241Z,99992.67
2023-04-05T06:03:32.186Z,99978.49
2023-04-05T06:06:03.531Z,99970.81
2023-04-05T06:08:32.206Z,99975.16
2023-04-05T06:11:01.752Z,99976.31
2023-04-05T06:13:30.971Z,99985.74
2023-04-05T06:16:06.405Z,99989.79
2023-04-05T06:18:35.262Z,99985.17
2023-04-05T06:21:03.937Z,99997.52
2023-04-05T06:23:33.259Z,99993.04
2023-04-05T06:26:02.373Z,100000.73
2023-04-05T06:28:31.066Z,99995.70
2023-04-05T06:31:16.238Z,99987.70
2023-04-05T06:33:45.716Z,99986.98
2023-04-05T06:36:18.036Z,99978.35
2023-04-05T06:38:47.223Z,99979.92
2023-04-05T06:41:15.875Z,99975.95
2023-04-05T06:43:44.426Z,99967.12
2023-04-05T06:46:14.095Z,99959.30
2023-04-05T06:48:48.625Z,99951.06
2023-04-05T06:51:41.513Z,99935.70
2023-04-05T06:54:53.754Z,99930.30
2023-04-05T06:57:43.308Z,99943.30
2023-04-05T07:00:17.631Z,99943.95
2023-04-05T07:02:48.685Z,99936.27
2023-04-05T07:05:17.924Z,99941.80
2023-04-05T07:07:49.062Z,99940.68
2023-04-05T07:10:17.929Z,99960.50
2023-04-05T07:12:49.165Z,99948.89
2023-04-05T07:15:21.054Z,99955.88
2023-04-05T07:17:50.064Z,99963.11
2023-04-05T07:20:19.358Z,99962.08
2023-04-05T07:22:52.196Z,99954.15
2023-04-05T07:25:21.341Z,99952.64
2023-04-05T07:27:50.020Z,99928.75
2023-04-05T07:30:20.646Z,99939.09
2023-04-05T07:32:50.131Z,99927.45
2023-04-05T07:35:18.570Z,99927.31
2023-04-05T07:37:49.540Z,99933.77
2023-04-05T07:40:18.506Z,99931.19
2023-04-05T07:42:47.088Z,99930.90
2023-04-05T07:45:16.148Z,99947.10
2023-04-05T07:47:45.204Z,99937.13
2023-04-05T07:50:17.542Z,99935.52
2023-04-05T07:52:46.606Z,99930.84
2023-04-05T07:55:15.188Z,99926.87
2023-04-05T07:57:44.777Z,99911.53
2023-04-05T08:00:14.557Z,99924.59
2023-04-05T08:02:48.748Z,99912.48
2023-04-05T08:05:17.337Z,99910.40
2023-04-05T08:07:46.006Z,99898.98
2023-04-05T08:10:18.916Z,99895.01
2023-04-05T08:12:49.164Z,99895.12
2023-04-05T08:15:17.982Z,99894.98
2023-04-05T08:17:47.603Z,99910.67
2023-04-05T08:20:16.380Z,99898.52
2023-04-05T08:22:44.902Z,99894.89
2023-04-05T08:25:14.148Z,99881.31
2023-04-05T08:27:42.831Z,99883.66
2023-04-05T08:30:12.544Z,99884.61
2023-04-05T08:32:42.437Z,99869.81
2023-04-05T08:35:11.123Z,99885.24
2023-04-05T08:37:41.841Z,99877.52
2023-04-05T08:40:10.555Z,99867.58
2023-04-05T08:42:52.077Z,99870.52
2023-04-05T08:45:20.528Z,99865.16
2023-04-05T08:47:49.506Z,99862.31
2023-04-05T08:50:18.396Z,99867.91
2023-04-05T08:52:50.502Z,99874.68
2023-04-05T08:55:19.472Z,99861.91
2023-04-05T08:57:51.463Z,99852.31
2023-04-05T09:00:20.576Z,99860.77
2023-04-05T09:02:55.920Z,99842.41
2023-04-05T09:05:24.737Z,99857.38
2023-04-05T09:07:53.172Z,99854.39
2023-04-05T09:10:22.223Z,99843.08
2023-04-05T09:12:53.006Z,99856.98
2023-04-05T09:15:24.526Z,99863.55
2023-04-05T09:17:55.164Z,99877.15
2023-04-05T09:20:24.289Z,99876.27
2023-04-05T09:22:53.019Z,99878.30
2023-04-05T09:25:35.869Z,99862.42
2023-04-05T09:28:05.021Z,99853.27
2023-04-05T09:30:34.883Z,99832.21
2023-04-05T09:33:12.855Z,99847.90
2023-04-05T09:35:41.524Z,99870.45
2023-04-05T09:38:10.419Z,99853.25
2023-04-05T09:40:47.339Z,99872.61
2023-04-05T09:43:42.147Z,99862.42
2023-04-05T09:46:38.311Z,99863.01
2023-04-05T09:49:09.611Z,99868.23
2023-04-05T09:51:38.870Z,99873.40
2023-04-05T09:54:11.551Z,99867.38
2023-04-05T09:56:41.471Z,99872.21
2023-04-05T09:59:11.821Z,99873.46
2023-04-05T10:01:43.982Z,99893.74
2023-04-05T10:04:14.058Z,99895.86
2023-04-05T10:06:43.090Z,99894.95
2023-04-05T10:09:15.609Z,99894.62
2023-04-05T10:11:45.679Z,99900.85
2023-04-05T10:14:14.663Z,99894.12
2023-04-05T10:17:08.594Z,99898.22
2023-04-05T10:20:11.251Z,99890.26
2023-04-05T10:22:46.422Z,99892.60
2023-04-05T10:25:39.353Z,99878.36
2023-04-05T10:28:12.615Z,99878.55
2023-04-05T10:30:47.668Z,99876.94
2023-04-05T10:33:19.226Z,99876.01
2023-04-05T10:36:45.030Z,99874.73
2023-04-05T10:39:40.396Z,99872.45
2023-04-05T10:42:18.210Z,99878.91
2023-04-05T10:44:46.849Z,99873.17
2023-04-05T10:47:17.583Z,99867.10
2023-04-05T10:49:53.995Z,99862.45
2023-04-05T10:52:22.889Z,99864.88
2023-04-05T10:54:52.876Z,99867.13
2023-04-05T10:57:21.859Z,99867.08
2023-04-05T10:59:50.277Z,99863.69
2023-04-05T11:02:22.527Z,99866.07
2023-04-05T11:04:58.309Z,99868.32
2023-04-05T11:07:27.228Z,99877.65
2023-04-05T11:10:06.128Z,99861.30
2023-04-05T11:12:47.340Z,99861.96
2023-04-05T11:15:29.337Z,99863.16
2023-04-05T11:18:07.204Z,99855.52
2023-04-05T11:20:56.448Z,99849.23
2023-04-05T11:23:31.563Z,99835.73
2023-04-05T11:26:07.564Z,99827.92
2023-04-05T11:28:39.933Z,99819.30
2023-04-05T11:31:23.092Z,99818.11
2023-04-05T11:33:57.688Z,99805.31
2023-04-05T11:36:42.335Z,99805.26
2023-04-05T11:39:18.818Z,99805.53
2023-04-05T11:42:02.595Z,99798.25
2023-04-05T11:44:42.718Z,99789.63
2023-04-05T11:47:12.758Z,99790.47
2023-04-05T11:49:53.019Z,99782.80
2023-04-05T11:52:24.298Z,99781.31
2023-04-05T11:54:54.193Z,99779.86
2023-04-05T11:57:23.574Z,99776.06
2023-04-05T12:00:01.483Z,99777.45
2023-04-05T12:02:56.066Z,99774.06
2023-04-05T12:05:25.071Z,99769.56
2023-04-05T12:07:56.626Z,99768.30
2023-04-05T12:10:27.131Z,99765.27
2023-04-05T12:12:56.556Z,99765.48
2023-04-05T12:15:26.363Z,99764.81
2023-04-05T12:17:55.052Z,99772.63
2023-04-05T12:20:25.378Z,99774.02
2023-04-05T12:22:56.351Z,99789.79
2023-04-05T12:25:25.192Z,99787.20
2023-04-05T12:27:54.192Z,99794.16
2023-04-05T12:30:23.894Z,99791.54
2023-04-05T12:32:54.405Z,99798.02
2023-04-05T12:35:34.181Z,99792.29
2023-04-05T12:38:05.716Z,99800.52
2023-04-05T12:40:34.914Z,99804.02
2023-04-05T12:43:09.007Z,99800.95
2023-04-05T12:45:42.197Z,99814.13
2023-04-05T12:48:22.409Z,99809.64
2023-04-05T12:50:55.386Z,99811.10
2023-04-05T12:53:28.792Z,99811.41
2023-04-05T12:55:57.917Z,99807.02
2023-04-05T12:58:36.233Z,99810.61
2023-04-05T13:01:05.349Z,99815.20
2023-04-05T13:03:35.189Z,99810.84
2023-04-05T13:06:05.311Z,99805.10
2023-04-05T13:08:34.259Z,99799.64
2023-04-05T13:11:02.673Z,99788.41
2023-04-05T13:13:34.614Z,99789.72
2023-04-05T13:16:05.636Z,99787.27
2023-04-05T13:18:36.125Z,99786.83
2023-04-05T13:21:08.684Z,99785.77
2023-04-05T13:23:38.189Z,99784.39
2023-04-05T13:26:06.905Z,99780.42
2023-04-05T13:28:36.453Z,99778.54
2023-04-05T13:31:07.024Z,99775.15
2023-04-05T13:33:37.783Z,99770.76
2023-04-05T13:36:08.723Z,99767.47
2023-04-05T13:38:44.124Z,99766.98
2023-04-05T13:41:12.608Z,99765.67
2023-04-05T13:43:40.980Z,99763.08
2023-04-05T13:46:13.505Z,99759.46
2023-04-05T13:48:42.246Z,99756.72
2023-04-05T13:51:18.388Z,99752.70
2023-04-05T13:53:46.998Z,99754.13
2023-04-05T13:56:15.492Z,99757.89
2023-04-05T13:58:46.306Z,99757.02
2023-04-05T14:01:14.765Z,99762.02
2023-04-05T14:03:51.819Z,99761.23
2023-04-05T14:06:20.796Z,99774.48
2023-04-05T14:08:55.401Z,99789.35
2023-04-05T14:11:26.918Z,99793.48
2023-04-05T14:13:55.878Z,99796.38
2023-04-05T14:16:24.655Z,99799.29
2023-04-05T14:18:57.953Z,99816.98
2023-04-05T14:21:27.888Z,99823.75
2023-04-05T14:23:58.146Z,99845.10
2023-04-05T14:26:27.811Z,99820.73
2023-04-05T14:28:56.673Z,99845.95
2023-04-05T14:31:26.980Z,99831.91
2023-04-05T14:33:57.368Z,99828.23
2023-04-05T14:36:27.135Z,99827.35
2023-04-05T14:38:56.903Z,99827.15
2023-04-05T14:41:27.493Z,99837.76
2023-04-05T14:43:56.141Z,99840.71
2023-04-05T14:46:25.508Z,99831.63
2023-04-05T14:48:54.962Z,99839.71
2023-04-05T14:51:23.734Z,99841.17
2023-04-05T14:53:52.525Z,99841.94
2023-04-05T14:56:26.933Z,99843.73
2023-04-05T14:58:55.945Z,99848.16
2023-04-05T15:01:25.554Z,99851.92
2023-04-05T15:03:56.238Z,99852.92
2023-04-05T15:06:25.311Z,99854.58
2023-04-05T15:08:57.288Z,99863.63
2023-04-05T15:11:27.382Z,99858.85
2023-04-05T15:13:56.209Z,99860.30
2023-04-05T15:16:25.403Z,99869.73
2023-04-05T15:18:55.908Z,99871.80
2023-04-05T15:21:25.089Z,99871.51
2023-04-05T15:23:53.695Z,99871.11
2023-04-05T15:26:22.303Z,99869.95
2023-04-05T15:28:51.234Z,99871.02
2023-04-05T15:31:19.985Z,99872.77
2023-04-05T15:33:48.699Z,99873.95
2023-04-05T15:36:17.336Z,99875.49
2023-04-05T15:38:46.691Z,99885.58
2023-04-05T15:41:15.208Z,99883.79
2023-04-05T15:43:45.114Z,99879.83
2023-04-05T15:46:21.429Z,99876.98
2023-04-05T15:49:15.397Z,99883.42
2023-04-05T15:51:47.892Z,99879.98
2023-04-05T16:02:44.817Z,99874.36
2023-04-05T16:05:14.425Z,99873.74
2023-04-05T17:18:47.962Z,99886.84
2023-04-05T17:24:36.456Z,99889.23
2023-04-05T17:27:06.025Z,99893.04
2023-04-05T17:30:04.095Z,99897.90
2023-04-05T17:33:04.951Z,99909.91
2023-04-05T17:36:19.192Z,99914.69
2023-04-05T17:39:13.458Z,99920.44
2023-04-05T17:41:47.436Z,99925.54
2023-04-05T17:44:21.686Z,99923.48
2023-04-05T17:47:01.227Z,99925.41
2023-04-05T17:49:36.970Z,99926.60
2023-04-05T17:52:13.405Z,99929.37
2023-04-05T17:54:43.913Z,99939.16
2023-04-05T17:57:15.880Z,99944.30
2023-04-05T17:59:46.070Z,99945.14
2023-04-05T18:02:20.877Z,99949.00
2023-04-05T18:05:10.773Z,99952.24
2023-04-05T18:07:43.398Z,99949.28
2023-04-05T18:10:13.919Z,99951.09
2023-04-05T18:12:43.311Z,99951.77
2023-04-05T18:15:21.181Z,99950.19
2023-04-05T18:17:51.067Z,99953.98
2023-04-05T18:20:20.022Z,99951.27
2023-04-05T18:22:57.194Z,99946.98
2023-04-05T18:25:26.788Z,99944.58
2023-04-05T18:27:56.415Z,99945.34
2023-04-05T18:30:26.781Z,99952.24
2023-04-05T18:32:56.313Z,99946.77
2023-04-05T18:35:24.942Z,99945.80
2023-04-05T18:37:53.912Z,99942.08
2023-04-05T18:40:22.514Z,99941.81
2023-04-05T18:42:54.600Z,99943.92
2023-04-05T18:45:23.384Z,99940.14
2023-04-05T18:47:52.044Z,99937.62
2023-04-05T18:50:20.777Z,99941.23
2023-04-05T18:52:49.478Z,99938.78
2023-04-05T18:55:18.386Z,99939.45
2023-04-05T18:57:47.422Z,99938.52
2023-04-05T19:00:17.516Z,99939.54
2023-04-05T19:02:49.050Z,99937.84
2023-04-05T19:05:18.226Z,99936.69
2023-04-05T19:07:46.814Z,99937.85
2023-04-05T19:10:15.639Z,99934.20
2023-04-05T19:12:45.512Z,99939.48
2023-04-05T19:15:24.243Z,99942.20
2023-04-05T19:17:53.077Z,99937.64
2023-04-05T19:20:21.936Z,99934.92
2023-04-05T19:22:50.835Z,99940.17
2023-04-05T19:25:19.916Z,99931.43
2023-04-05T19:27:52.306Z,99929.35
2023-04-05T19:30:22.321Z,99925.98
2023-04-05T19:33:06.378Z,99923.75
2023-04-05T19:35:35.882Z,99926.89
2023-04-05T19:38:05.657Z,99929.88
2023-04-05T19:40:34.269Z,99929.21
2023-04-05T19:43:04.513Z,99928.35
2023-04-05T19:45:34.830Z,99926.17
2023-04-05T19:48:04.843Z,99921.70
2023-04-05T19:50:49.535Z,99927.48
2023-04-05T19:53:41.469Z,99922.89
2023-04-05T19:56:16.856Z,99921.96
2023-04-05T19:58:46.218Z,99927.84
2023-04-05T20:01:34.143Z,99925.89
2023-04-05T20:04:22.689Z,99928.26
2023-04-05T20:06:55.432Z,99932.81
2023-04-05T20:09:26.956Z,99936.02
2023-04-05T20:11:58.201Z,99941.85
2023-04-05T20:14:41.998Z,99945.88
2023-04-05T20:17:12.724Z,99937.71
2023-04-05T20:19:56.552Z,99934.05
2023-04-05T20:22:27.297Z,99927.88
2023-04-05T20:24:57.230Z,99921.27
2023-04-05T20:27:26.757Z,99925.67
2023-04-05T20:29:56.946Z,99928.61
2023-04-05T20:32:28.091Z,99928.18
2023-04-05T20:34:57.170Z,99926.30
2023-04-05T20:37:31.388Z,99929.89
2023-04-05T20:40:00.813Z,99927.98
2023-04-05T20:42:33.349Z,99931.95
2023-04-05T20:45:06.345Z,99930.77
2023-04-05T20:47:36.573Z,99934.59
2023-04-05T20:50:06.475Z,99932.10
2023-04-05T20:52:35.793Z,99934.13
2023-04-05T20:55:06.273Z,99932.61
2023-04-05T20:57:47.195Z,99931.73
2023-04-05T21:00:19.858Z,99930.54
2023-04-05T21:02:49.473Z,99932.88
2023-04-05T21:05:18.286Z,99934.42
2023-04-05T21:07:49.191Z,99932.29
2023-04-05T21:10:18.006Z,99933.63
2023-04-05T21:12:46.971Z,99938.98
2023-04-05T21:15:15.535Z,99934.60
2023-04-05T21:17:45.595Z,99932.02
2023-04-05T21:20:14.192Z,99932.69
2023-04-05T21:22:42.704Z,99933.62
2023-04-05T21:25:11.552Z,99933.30
2023-04-05T21:27:40.076Z,99936.03
2023-04-05T21:30:10.094Z,99934.45
2023-04-05T21:32:39.193Z,99931.41
2023-04-05T21:35:09.368Z,99928.05
2023-04-05T21:37:39.168Z,99932.02
2023-04-05T21:40:08.448Z,99928.30
2023-04-05T21:42:36.984Z,99928.09
2023-04-05T21:45:07.214Z,99927.94
2023-04-05T21:47:36.782Z,99931.17
2023-04-05T21:50:09.771Z,99936.15
2023-04-05T21:52:38.343Z,99935.25
2023-04-05T21:55:07.329Z,99938.89
2023-04-05T21:57:37.643Z,99940.81
2023-04-05T22:00:11.138Z,99938.50
2023-04-05T22:02:47.154Z,99940.26
2023-04-05T22:05:29.464Z,99938.94
2023-04-05T22:08:06.541Z,99941.25
2023-04-05T22:10:36.400Z,99933.61
2023-04-05T22:13:05.580Z,99930.30
2023-04-05T22:15:36.052Z,99933.11
2023-04-05T22:18:05.913Z,99928.65
2023-04-05T22:20:41.328Z,99927.52
2023-04-05T22:23:10.043Z,99927.38
2023-04-05T22:25:38.597Z,99927.39
2023-04-05T22:28:08.677Z,99924.44
2023-04-05T22:33:13.082Z,99924.84
2023-04-05T22:35:42.207Z,99926.38
2023-04-05T22:38:13.949Z,99928.04
2023-04-05T22:40:44.998Z,99924.95
2023-04-05T22:43:13.764Z,99925.60
2023-04-05T22:45:43.268Z,99924.02
2023-04-05T22:48:11.967Z,99934.94
2023-04-05T22:50:42.198Z,99933.19
2023-04-05T22:53:10.938Z,99935.55
2023-04-05T22:55:41.146Z,99935.56
2023-04-05T22:58:11.860Z,99934.94
2023-04-05T23:00:40.661Z,99930.58
2023-04-05T23:03:11.174Z,99932.00
2023-04-05T23:05:40.532Z,99933.16
2023-04-05T23:08:09.075Z,99933.75
2023-04-05T23:10:37.931Z,99937.33
2023-04-05T23:13:07.356Z,99938.36
2023-04-05T23:15:36.797Z,99945.42
2023-04-05T23:18:08.799Z,99944.31
2023-04-05T23:20:40.609Z,99946.91
2023-04-05T23:23:17.439Z,99954.37
2023-04-05T23:26:00.347Z,99957.07
2023-04-05T23:28:32.094Z,99958.41
2023-04-05T23:31:08.837Z,99959.70
2023-04-05T23:33:43.587Z,99959.11
2023-04-05T23:36:15.371Z,99960.73
2023-04-05T23:38:44.988Z,99958.08
2023-04-05T23:41:13.649Z,99954.63
2023-04-05T23:43:42.413Z,99956.59
2023-04-05T23:46:11.463Z,99950.58
2023-04-05T23:48:41.488Z,99951.89
2023-04-05T23:51:10.192Z,99953.08
2023-04-05T23:53:41.505Z,99952.45
2023-04-05T23:56:11.652Z,99955.94
2023-04-05T23:58:42.440Z,99950.85
